Terminal Aerodrome Forecast
Issued by NWS Kansas City/Pleasant Hill, MO

Home | Current Version | Previous Version | Text Only | Print | Product List | Glossary On
Versions: 1 2 3 4 5 6 7 8 9 10 11 12 13 14 15
000
FTUS43 KEAX 222300
TAFMCI
TAF
KMCI 222326Z 2300/2324 14008KT P6SM VCTS SCT060CB SCT120
     FM230200 18006KT P6SM SCT080 SCT120
     FM231300 19010KT P6SM FEW100 SCT250=

USA.gov is the U.S. government's official web portal to all federal, state and local government web resources and services.